createdAt,value
2019-01-10T00:00:11.567Z,87.39
2019-01-10T00:02:40.009Z,87.33
2019-01-10T00:05:10.510Z,87.53
2019-01-10T00:07:38.941Z,87.75
2019-01-10T00:10:10.150Z,87.77
2019-01-10T00:12:39.531Z,87.77
2019-01-10T00:15:11.045Z,87.69
2019-01-10T00:17:39.487Z,87.97
2019-01-10T00:20:10.754Z,87.92
2019-01-10T00:22:39.248Z,87.93
2019-01-10T00:25:10.159Z,88.13
2019-01-10T00:27:38.588Z,88.04
2019-01-10T00:30:10.365Z,88.03
2019-01-10T00:32:38.797Z,88.08
2019-01-10T00:35:08.800Z,88.16
2019-01-10T00:37:37.241Z,88.20
2019-01-10T00:40:09.116Z,88.19
2019-01-10T00:42:37.564Z,87.98
2019-01-10T00:45:11.454Z,87.83
2019-01-10T00:47:39.889Z,87.76
2019-01-10T00:50:11.856Z,87.75
2019-01-10T00:52:40.294Z,87.89
2019-01-10T00:55:08.750Z,87.92
2019-01-10T00:57:37.259Z,88.09
2019-01-10T01:00:17.256Z,88.24
2019-01-10T01:02:45.708Z,88.44
2019-01-10T01:05:15.195Z,88.70
2019-01-10T01:07:43.699Z,88.87
2019-01-10T01:10:23.860Z,89.26
2019-01-10T01:12:58.431Z,89.63
2019-01-10T01:15:22.480Z,89.78
2019-01-10T01:17:50.918Z,89.85
2019-01-10T01:20:24.154Z,90.06
2019-01-10T01:22:52.765Z,90.25
2019-01-10T01:25:21.205Z,90.44
2019-01-10T01:27:49.680Z,90.48
2019-01-10T01:30:23.514Z,90.42
2019-01-10T01:32:52.044Z,90.47
2019-01-10T01:35:21.739Z,90.54
2019-01-10T01:37:50.328Z,90.58
2019-01-10T01:40:20.205Z,90.55
2019-01-10T01:42:48.668Z,90.50
2019-01-10T01:45:18.652Z,90.56
2019-01-10T01:47:47.656Z,90.50
2019-01-10T01:50:20.960Z,90.51
2019-01-10T01:52:49.812Z,90.50
2019-01-10T01:55:18.244Z,90.59
2019-01-10T01:57:46.777Z,90.67
2019-01-10T02:00:18.087Z,90.65
2019-01-10T02:02:46.548Z,90.57
2019-01-10T02:05:15.358Z,90.50
2019-01-10T02:07:43.826Z,90.50
2019-01-10T02:10:15.763Z,90.46
2019-01-10T02:12:44.281Z,90.60
2019-01-10T02:15:14.247Z,90.57
2019-01-10T02:17:48.870Z,90.44
2019-01-10T02:20:13.443Z,90.20
2019-01-10T02:22:41.900Z,89.95
2019-01-10T02:25:12.489Z,89.90
2019-01-10T02:27:40.942Z,89.67
2019-01-10T02:30:15.174Z,89.59
2019-01-10T02:32:43.635Z,89.48
2019-01-10T02:35:12.339Z,89.25
2019-01-10T02:37:40.809Z,89.34
2019-01-10T02:40:09.822Z,89.27
2019-01-10T02:42:38.289Z,89.32
2019-01-10T02:45:12.277Z,89.17
2019-01-10T02:47:40.747Z,89.16
2019-01-10T02:50:12.341Z,89.22
2019-01-10T02:52:40.813Z,89.03
2019-01-10T02:55:09.978Z,88.90
2019-01-10T02:57:38.467Z,88.93
2019-01-10T03:00:11.245Z,89.06
2019-01-10T03:02:39.724Z,88.72
2019-01-10T03:05:08.907Z,88.65
2019-01-10T03:07:37.364Z,88.56
2019-01-10T03:10:11.731Z,88.55
2019-01-10T03:12:40.196Z,88.46
2019-01-10T03:15:09.005Z,88.19
2019-01-10T03:17:37.540Z,88.05
2019-01-10T03:20:09.293Z,87.86
2019-01-10T03:22:37.760Z,87.86
2019-01-10T03:25:07.746Z,87.91
2019-01-10T03:27:36.204Z,88.02
2019-01-10T03:30:07.955Z,87.97
2019-01-10T03:32:36.427Z,87.76
2019-01-10T03:35:06.894Z,87.67
2019-01-10T03:37:35.384Z,87.40
2019-01-10T03:40:06.718Z,87.18
2019-01-10T03:42:35.187Z,87.09
2019-01-10T03:45:04.596Z,87.08
2019-01-10T03:47:33.070Z,87.10
2019-01-10T03:50:01.505Z,87.16
2019-01-10T03:52:29.962Z,87.34
2019-01-10T03:54:58.397Z,87.57
2019-01-10T03:57:26.869Z,87.70
2019-01-10T03:59:55.302Z,87.94
2019-01-10T04:02:23.734Z,88.11
2019-01-10T04:04:52.201Z,87.95
2019-01-10T04:07:20.641Z,87.91
2019-01-10T04:09:49.110Z,87.73
2019-01-10T04:12:17.545Z,87.73
2019-01-10T04:14:46.005Z,87.64
2019-01-10T04:17:14.450Z,87.46
2019-01-10T04:19:42.923Z,87.17
2019-01-10T04:22:11.356Z,86.94
2019-01-10T04:24:39.821Z,86.48
2019-01-10T04:27:08.262Z,86.46
2019-01-10T04:29:36.736Z,86.10
2019-01-10T04:32:05.177Z,86.24
2019-01-10T04:34:33.646Z,85.94
2019-01-10T04:37:02.207Z,85.81
2019-01-10T04:39:30.631Z,85.59
2019-01-10T04:41:59.073Z,85.74
2019-01-10T04:44:27.533Z,85.34
2019-01-10T04:46:55.979Z,85.42
2019-01-10T04:49:24.521Z,85.32
2019-01-10T04:51:52.984Z,85.11
2019-01-10T04:54:21.445Z,85.36
2019-01-10T04:56:49.886Z,85.43
2019-01-10T04:59:18.348Z,85.33
2019-01-10T05:01:46.790Z,85.33
2019-01-10T05:04:15.259Z,85.22
2019-01-10T05:06:43.697Z,85.00
2019-01-10T05:09:12.164Z,84.70
2019-01-10T05:11:40.616Z,84.57
2019-01-10T05:14:16.409Z,84.76
2019-01-10T05:16:39.336Z,84.57
2019-01-10T05:19:07.794Z,84.19
2019-01-10T05:21:36.246Z,84.20
2019-01-10T05:24:04.962Z,84.18
2019-01-10T05:26:33.406Z,84.08
2019-01-10T05:29:01.875Z,84.08
2019-01-10T05:31:30.312Z,83.85
2019-01-10T05:34:02.499Z,83.72
2019-01-10T05:36:31.123Z,83.66
2019-01-10T05:38:59.597Z,83.56
2019-01-10T05:41:28.033Z,83.06
2019-01-10T05:43:56.494Z,82.70
2019-01-10T05:46:24.930Z,82.48
2019-01-10T05:48:53.665Z,82.38
2019-01-10T05:51:22.105Z,82.51
2019-01-10T05:53:50.545Z,82.52
2019-01-10T05:56:19.002Z,82.43
2019-01-10T05:58:47.440Z,82.02
2019-01-10T06:01:15.916Z,82.00
2019-01-10T06:03:52.947Z,81.80
2019-01-10T06:06:14.545Z,81.88
2019-01-10T06:08:42.979Z,81.99
2019-01-10T06:11:11.447Z,81.84
2019-01-10T06:13:39.882Z,81.50
2019-01-10T06:16:08.345Z,81.20
2019-01-10T06:18:36.787Z,81.16
2019-01-10T06:21:05.250Z,80.88
2019-01-10T06:23:34.270Z,80.81
2019-01-10T06:26:02.737Z,80.81
2019-01-10T06:28:31.176Z,81.13
2019-01-10T06:30:59.719Z,81.32
2019-01-10T06:33:28.154Z,81.41
2019-01-10T06:35:56.620Z,81.68
2019-01-10T06:38:25.060Z,81.72
2019-01-10T06:40:53.521Z,81.48
2019-01-10T06:43:22.129Z,81.67
2019-01-10T06:45:50.599Z,81.71
2019-01-10T06:48:19.036Z,81.81
2019-01-10T06:50:47.504Z,81.58
2019-01-10T06:53:15.941Z,81.61
2019-01-10T06:55:44.402Z,81.71
2019-01-10T06:58:12.934Z,81.52
2019-01-10T07:00:41.404Z,81.61
2019-01-10T07:03:09.844Z,81.54
2019-01-10T07:05:38.305Z,81.34
2019-01-10T07:08:06.745Z,81.24
2019-01-10T07:10:35.205Z,81.27
2019-01-10T07:13:03.651Z,81.15
2019-01-10T07:15:32.114Z,81.17
2019-01-10T07:18:00.557Z,81.14
2019-01-10T07:20:29.021Z,81.07
2019-01-10T07:22:57.532Z,81.29
2019-01-10T07:25:25.999Z,81.41
2019-01-10T07:27:56.588Z,81.37
2019-01-10T07:30:35.588Z,81.21
2019-01-10T07:32:56.124Z,81.18
2019-01-10T07:35:25.784Z,81.02
2019-01-10T07:37:55.041Z,80.98
2019-01-10T07:40:23.481Z,81.12
2019-01-10T07:42:52.387Z,81.13
2019-01-10T07:45:24.796Z,80.96
2019-01-10T07:47:53.247Z,81.06
2019-01-10T07:50:29.637Z,81.01
2019-01-10T07:52:58.096Z,80.95
2019-01-10T07:55:26.530Z,81.13
2019-01-10T07:57:54.990Z,80.98
2019-01-10T08:00:23.423Z,80.89
2019-01-10T08:02:51.937Z,80.77
2019-01-10T08:05:20.876Z,80.80
2019-01-10T08:07:49.344Z,80.71
2019-01-10T08:10:17.783Z,80.54
2019-01-10T08:12:46.689Z,80.75
2019-01-10T08:15:17.968Z,80.61
2019-01-10T08:17:46.433Z,80.50
2019-01-10T08:20:14.991Z,80.09
2019-01-10T08:22:43.591Z,80.10
2019-01-10T08:25:12.134Z,80.33
2019-01-10T08:27:40.599Z,80.30
2019-01-10T08:30:15.350Z,80.02
2019-01-10T08:32:43.813Z,79.53
2019-01-10T08:35:13.692Z,79.26
2019-01-10T08:37:42.265Z,78.84
2019-01-10T08:40:11.070Z,78.69
2019-01-10T08:42:39.538Z,78.98
2019-01-10T08:45:10.023Z,78.40
2019-01-10T08:47:38.472Z,77.82
2019-01-10T08:50:10.316Z,77.46
2019-01-10T08:52:38.773Z,77.12
2019-01-10T08:55:08.286Z,75.68
2019-01-10T08:57:36.757Z,74.74
2019-01-10T09:00:11.130Z,74.72
2019-01-10T09:02:39.589Z,75.43
2019-01-10T09:05:08.469Z,75.58
2019-01-10T09:07:36.938Z,76.17
2019-01-10T09:10:08.553Z,76.24
2019-01-10T09:12:37.021Z,76.37
2019-01-10T09:15:08.101Z,76.91
2019-01-10T09:17:36.564Z,76.78
2019-01-10T09:20:08.173Z,76.80
2019-01-10T09:22:36.626Z,77.06
2019-01-10T09:25:05.807Z,77.28
2019-01-10T09:27:34.337Z,77.37
2019-01-10T09:30:02.784Z,77.63
2019-01-10T09:32:31.248Z,77.65
2019-01-10T09:34:59.694Z,77.54
2019-01-10T09:37:28.156Z,77.52
2019-01-10T09:39:56.590Z,77.50
2019-01-10T09:42:25.056Z,77.57
2019-01-10T09:44:53.497Z,77.76
2019-01-10T09:47:21.964Z,77.49
2019-01-10T09:49:50.404Z,77.43
2019-01-10T09:52:18.845Z,77.16
2019-01-10T09:54:47.308Z,77.46
2019-01-10T09:57:15.890Z,77.95
2019-01-10T09:59:44.352Z,77.92
2019-01-10T10:02:12.793Z,77.74
2019-01-10T10:04:41.262Z,76.84
2019-01-10T10:07:09.700Z,76.28
2019-01-10T10:09:38.169Z,74.87
2019-01-10T10:12:06.766Z,74.24
2019-01-10T10:14:35.272Z,74.25
2019-01-10T10:17:03.665Z,73.74
2019-01-10T10:19:32.135Z,73.64
2019-01-10T10:22:00.575Z,72.97
2019-01-10T10:24:29.041Z,72.80
2019-01-10T10:26:57.830Z,72.43
2019-01-10T10:29:26.299Z,72.58
2019-01-10T10:31:54.739Z,72.13
2019-01-10T10:34:23.197Z,71.80
2019-01-10T10:36:51.700Z,71.33
2019-01-10T10:39:20.165Z,71.08
2019-01-10T10:41:48.598Z,70.95
2019-01-10T10:44:17.059Z,71.23
2019-01-10T10:46:45.501Z,71.23
2019-01-10T10:49:13.969Z,70.55
2019-01-10T10:51:42.414Z,70.57
2019-01-10T10:54:10.881Z,71.04
2019-01-10T10:56:39.321Z,71.04
2019-01-10T10:59:07.850Z,70.47
2019-01-10T11:01:36.314Z,70.00
2019-01-10T11:04:05.424Z,70.00
2019-01-10T11:06:33.865Z,70.11
2019-01-10T11:09:09.090Z,70.11
2019-01-10T11:11:32.497Z,69.99
2019-01-10T11:14:00.966Z,69.82
2019-01-10T11:16:29.405Z,69.06
2019-01-10T11:18:57.869Z,69.06
2019-01-10T11:21:26.311Z,69.08
2019-01-10T11:23:54.767Z,69.34
2019-01-10T11:26:23.211Z,69.90
2019-01-10T11:28:51.984Z,69.98
2019-01-10T11:31:20.433Z,70.38
2019-01-10T11:33:48.898Z,70.29
2019-01-10T11:36:17.330Z,70.79
2019-01-10T11:38:45.872Z,70.79
2019-01-10T11:41:14.307Z,70.43
2019-01-10T11:43:42.747Z,70.43
2019-01-10T11:46:19.218Z,70.76
2019-01-10T11:48:41.372Z,70.65
2019-01-10T11:51:09.843Z,70.82
2019-01-10T11:53:38.280Z,70.82
2019-01-10T11:56:07.017Z,70.29
2019-01-10T11:58:35.463Z,70.23
2019-01-10T12:01:04.177Z,70.61
2019-01-10T12:03:32.611Z,70.59
2019-01-10T12:06:01.077Z,70.30
2019-01-10T12:08:29.582Z,70.76
2019-01-10T12:10:58.061Z,70.87
2019-01-10T12:13:26.501Z,71.08
2019-01-10T12:15:54.968Z,70.88
2019-01-10T12:18:23.409Z,71.38
2019-01-10T12:20:51.866Z,71.22
2019-01-10T12:23:20.380Z,71.17
2019-01-10T12:25:48.843Z,71.25
2019-01-10T12:28:17.275Z,70.55
2019-01-10T12:30:45.895Z,70.55
2019-01-10T12:33:14.331Z,71.26
2019-01-10T12:35:42.864Z,70.90
2019-01-10T12:38:11.305Z,69.86
2019-01-10T12:40:39.768Z,69.86
2019-01-10T12:43:08.482Z,69.57
2019-01-10T12:45:37.204Z,69.57
2019-01-10T12:48:05.647Z,69.17
2019-01-10T12:50:34.381Z,69.17
2019-01-10T12:53:02.883Z,68.77
2019-01-10T12:55:31.352Z,68.66
2019-01-10T12:57:59.794Z,68.22
2019-01-10T13:00:28.263Z,68.00
2019-01-10T13:02:57.276Z,68.37
2019-01-10T13:05:25.742Z,68.11
2019-01-10T13:08:03.162Z,68.41
2019-01-10T13:10:24.374Z,68.16
2019-01-10T13:12:52.813Z,68.35
2019-01-10T13:15:23.621Z,68.69
2019-01-10T13:17:52.128Z,69.03
2019-01-10T13:20:20.666Z,68.96
2019-01-10T13:22:49.105Z,69.07
2019-01-10T13:25:19.184Z,68.46
2019-01-10T13:27:47.986Z,68.71
2019-01-10T13:30:21.136Z,69.65
2019-01-10T13:32:49.863Z,69.81
2019-01-10T13:35:18.304Z,69.58
2019-01-10T13:37:46.798Z,69.10
2019-01-10T13:40:16.017Z,69.01
2019-01-10T13:42:44.507Z,69.14
2019-01-10T13:45:14.579Z,69.16
2019-01-10T13:47:44.849Z,69.57
2019-01-10T13:50:19.128Z,69.57
2019-01-10T13:52:47.766Z,69.38
2019-01-10T13:55:18.144Z,69.39
2019-01-10T13:57:46.682Z,69.25
2019-01-10T14:00:20.825Z,69.50
2019-01-10T14:02:49.374Z,69.50
2019-01-10T14:05:17.787Z,69.33
2019-01-10T14:07:46.427Z,69.33
2019-01-10T14:10:16.669Z,69.33
2019-01-10T14:12:45.422Z,69.64
2019-01-10T14:15:17.001Z,69.59
2019-01-10T14:17:45.537Z,69.83
2019-01-10T14:20:14.549Z,69.27
2019-01-10T14:22:43.082Z,69.53
2019-01-10T14:25:11.791Z,69.65
2019-01-10T14:27:40.525Z,70.04
2019-01-10T14:30:18.361Z,70.23
2019-01-10T14:32:46.831Z,70.48
2019-01-10T14:35:15.446Z,70.32
2019-01-10T14:37:43.905Z,70.32
2019-01-10T14:40:12.914Z,70.57
2019-01-10T14:42:41.376Z,70.73
2019-01-10T14:45:15.377Z,70.87
2019-01-10T14:47:43.842Z,70.63
2019-01-10T14:50:13.022Z,70.74
2019-01-10T14:52:41.488Z,70.81
2019-01-10T14:55:13.027Z,70.78
2019-01-10T14:57:41.489Z,70.75
2019-01-10T15:00:13.243Z,71.24
2019-01-10T15:02:41.778Z,71.55
2019-01-10T15:05:10.282Z,71.82
2019-01-10T15:07:38.741Z,71.87
2019-01-10T15:10:08.928Z,72.10
2019-01-10T15:12:37.382Z,72.21
2019-01-10T15:15:09.233Z,72.51
2019-01-10T15:17:37.698Z,72.56
2019-01-10T15:20:09.309Z,72.91
2019-01-10T15:22:37.895Z,73.35
2019-01-10T15:25:06.573Z,72.98
2019-01-10T15:27:35.033Z,72.90
2019-01-10T15:32:33.825Z,72.97
2019-01-10T15:35:02.261Z,72.61
2019-01-10T15:37:30.724Z,72.47
2019-01-10T15:39:59.167Z,72.75
2019-01-10T15:42:27.736Z,72.98
2019-01-10T15:44:56.177Z,72.99
2019-01-10T15:47:24.640Z,73.08
2019-01-10T15:49:53.082Z,73.32
2019-01-10T15:52:21.543Z,73.50
2019-01-10T15:54:49.974Z,73.74
2019-01-10T15:57:19.169Z,73.89
2019-01-10T15:59:47.662Z,74.20
2019-01-10T16:02:16.105Z,74.25
2019-01-10T16:04:44.578Z,74.11
2019-01-10T16:07:13.013Z,74.37
2019-01-10T16:09:41.480Z,74.22
2019-01-10T16:12:09.915Z,73.83
2019-01-10T16:14:38.375Z,73.95
2019-01-10T16:17:06.877Z,74.04
2019-01-10T16:19:35.344Z,74.11
2019-01-10T16:22:03.774Z,74.15
2019-01-10T16:24:32.243Z,74.20
2019-01-10T16:27:00.683Z,74.24
2019-01-10T16:29:29.150Z,74.28
2019-01-10T16:31:57.582Z,74.21
2019-01-10T16:34:26.047Z,74.25
2019-01-10T16:36:54.485Z,74.30
2019-01-10T16:39:22.943Z,74.28
2019-01-10T16:41:51.388Z,74.34
2019-01-10T16:44:19.858Z,74.43
2019-01-10T16:46:48.297Z,74.55
2019-01-10T16:49:16.754Z,74.81
2019-01-10T16:51:45.203Z,74.89
2019-01-10T16:54:13.671Z,74.95
2019-01-10T16:56:42.110Z,75.12
2019-01-10T16:59:10.654Z,75.39
2019-01-10T17:01:39.094Z,75.39
2019-01-10T17:04:07.559Z,75.55
2019-01-10T17:06:38.400Z,75.75
2019-01-10T17:09:08.103Z,75.89
2019-01-10T17:11:36.545Z,76.00
2019-01-10T17:14:05.555Z,75.96
2019-01-10T17:16:34.220Z,75.96
2019-01-10T17:19:02.748Z,75.98
2019-01-10T17:21:31.195Z,75.97
2019-01-10T17:23:59.662Z,76.16
2019-01-10T17:26:28.101Z,76.17
2019-01-10T17:28:56.564Z,76.16
2019-01-10T17:31:25.005Z,76.12
2019-01-10T17:33:53.472Z,76.25
2019-01-10T17:36:21.906Z,76.29
2019-01-10T17:38:50.373Z,76.37
2019-01-10T17:41:18.813Z,76.37
2019-01-10T17:43:47.422Z,76.25
2019-01-10T17:46:15.853Z,76.20
2019-01-10T17:48:44.300Z,76.38
2019-01-10T17:51:12.759Z,76.57
2019-01-10T17:53:41.193Z,76.58
2019-01-10T17:56:09.662Z,76.60
2019-01-10T17:58:38.107Z,76.63
2019-01-10T18:01:06.735Z,76.60
2019-01-10T18:03:40.061Z,76.73
2019-01-10T18:06:05.531Z,76.95
2019-01-10T18:08:33.975Z,77.12
2019-01-10T18:11:02.443Z,77.14
2019-01-10T18:13:30.874Z,77.37
2019-01-10T18:15:59.339Z,77.48
2019-01-10T18:18:27.783Z,77.81
2019-01-10T18:20:56.377Z,77.70
2019-01-10T18:23:24.810Z,77.69
2019-01-10T18:25:53.265Z,77.57
2019-01-10T18:28:21.705Z,77.53
2019-01-10T18:30:50.165Z,77.50
2019-01-10T18:33:18.704Z,77.39
2019-01-10T18:35:47.172Z,77.39
2019-01-10T18:38:15.611Z,77.39
2019-01-10T18:40:44.070Z,77.45
2019-01-10T18:43:12.521Z,77.54
2019-01-10T18:45:40.984Z,77.77
2019-01-10T18:48:09.425Z,77.75
2019-01-10T18:50:37.888Z,77.63
2019-01-10T18:53:06.334Z,77.79
2019-01-10T18:55:34.807Z,77.92
2019-01-10T18:58:03.241Z,78.00
2019-01-10T19:00:31.710Z,78.16
2019-01-10T19:03:00.394Z,78.55
2019-01-10T19:05:28.856Z,78.30
2019-01-10T19:07:57.473Z,78.20
2019-01-10T19:10:25.942Z,78.42
2019-01-10T19:12:54.378Z,78.44
2019-01-10T19:15:23.020Z,78.61
2019-01-10T19:17:51.459Z,78.43
2019-01-10T19:20:22.634Z,78.47
2019-01-10T19:22:51.319Z,78.26
2019-01-10T19:25:19.776Z,78.35
2019-01-10T19:27:48.221Z,78.29
2019-01-10T19:30:19.326Z,78.48
2019-01-10T19:32:47.772Z,78.33
2019-01-10T19:35:16.277Z,78.26
2019-01-10T19:37:44.713Z,78.41
2019-01-10T19:40:16.449Z,78.27
2019-01-10T19:42:44.922Z,78.23
2019-01-10T19:45:16.200Z,78.05
2019-01-10T19:47:44.673Z,78.19
2019-01-10T19:50:18.304Z,78.05
2019-01-10T19:52:47.850Z,78.14
2019-01-10T19:55:18.025Z,78.12
2019-01-10T19:57:46.488Z,77.99
2019-01-10T20:00:26.681Z,77.97
2019-01-10T20:02:55.152Z,77.87
2019-01-10T20:05:23.665Z,77.93
2019-01-10T20:07:52.114Z,78.00
2019-01-10T20:10:20.574Z,78.08
2019-01-10T20:12:50.211Z,78.07
2019-01-10T20:15:18.649Z,77.96
2019-01-10T20:17:47.286Z,78.18
2019-01-10T20:20:27.537Z,78.15
2019-01-10T20:22:57.942Z,78.28
2019-01-10T20:25:26.455Z,78.26
2019-01-10T20:27:54.993Z,78.30
2019-01-10T20:30:23.434Z,78.41
2019-01-10T20:32:51.900Z,78.54
2019-01-10T20:35:20.340Z,78.52
2019-01-10T20:37:48.801Z,78.44
2019-01-10T20:40:19.058Z,78.52
2019-01-10T20:42:47.533Z,78.52
2019-01-10T20:45:16.213Z,78.42
2019-01-10T20:47:45.118Z,78.32
2019-01-10T20:50:15.512Z,78.32
2019-01-10T20:52:44.241Z,78.47
2019-01-10T20:55:14.765Z,78.43
2019-01-10T20:57:43.473Z,78.46
2019-01-10T21:00:26.364Z,78.54
2019-01-10T21:02:55.554Z,78.52
2019-01-10T21:05:24.288Z,78.55
2019-01-10T21:07:53.473Z,78.57
2019-01-10T21:10:23.812Z,78.54
2019-01-10T21:12:52.487Z,78.55
2019-01-10T21:15:23.734Z,78.68
2019-01-10T21:17:52.245Z,78.60
2019-01-10T21:20:20.789Z,78.66
2019-01-10T21:22:49.579Z,78.69
2019-01-10T21:25:18.473Z,78.58
2019-01-10T21:27:47.157Z,78.62
2019-01-10T21:30:18.373Z,78.79
2019-01-10T21:32:47.810Z,78.88
2019-01-10T21:35:16.423Z,79.01
2019-01-10T21:37:44.877Z,79.14
2019-01-10T21:40:19.171Z,79.11
2019-01-10T21:42:48.905Z,79.29
2019-01-10T21:45:19.089Z,79.32
2019-01-10T21:47:47.720Z,79.52
2019-01-10T21:50:22.138Z,79.60
2019-01-10T21:52:50.601Z,79.60
2019-01-10T21:55:19.043Z,79.81
2019-01-10T21:57:47.673Z,79.76
2019-01-10T22:00:19.515Z,79.74
2019-01-10T22:02:47.974Z,79.81
2019-01-10T22:05:16.412Z,79.93
2019-01-10T22:07:45.143Z,79.94
2019-01-10T22:10:13.958Z,79.98
2019-01-10T22:12:42.448Z,80.08
2019-01-10T22:15:15.543Z,80.16
2019-01-10T22:17:43.986Z,80.30
2019-01-10T22:20:20.461Z,80.31
2019-01-10T22:22:49.135Z,80.42
2019-01-10T22:25:17.600Z,80.49
2019-01-10T22:27:46.040Z,80.67
2019-01-10T22:30:19.736Z,80.73
2019-01-10T22:32:48.444Z,80.85
2019-01-10T22:35:18.941Z,80.96
2019-01-10T22:37:47.453Z,81.02
2019-01-10T22:40:18.435Z,81.19
2019-01-10T22:42:46.946Z,81.28
2019-01-10T22:45:16.455Z,81.30
2019-01-10T22:47:44.893Z,81.41
2019-01-10T22:50:15.998Z,81.42
2019-01-10T22:52:44.442Z,81.52
2019-01-10T22:55:14.254Z,81.45
2019-01-10T22:57:42.688Z,81.51
2019-01-10T23:00:57.081Z,81.63
2019-01-10T23:03:25.865Z,81.66
2019-01-10T23:05:54.338Z,81.81
2019-01-10T23:08:22.777Z,81.79
2019-01-10T23:10:51.242Z,81.97
2019-01-10T23:13:19.680Z,82.06
2019-01-10T23:15:48.150Z,82.11
2019-01-10T23:18:16.593Z,82.10
2019-01-10T23:20:48.338Z,82.23
2019-01-10T23:23:16.781Z,82.25
2019-01-10T23:25:50.059Z,82.27
2019-01-10T23:28:18.590Z,82.35
2019-01-10T23:30:49.683Z,82.28
2019-01-10T23:33:20.681Z,82.35
2019-01-10T23:35:52.051Z,82.40
2019-01-10T23:38:24.164Z,82.47
2019-01-10T23:40:52.622Z,82.40
2019-01-10T23:43:21.068Z,82.29
2019-01-10T23:45:49.534Z,82.23
2019-01-10T23:48:17.976Z,82.24
2019-01-10T23:50:46.516Z,82.26
2019-01-10T23:53:14.954Z,82.28
2019-01-10T23:55:43.425Z,82.19
2019-01-10T23:58:11.864Z,82.14
